createdAt,value
2019-02-20T00:01:44.239Z,7.43
2019-02-20T00:04:14.737Z,7.67
2019-02-20T00:06:45.651Z,7.20
2019-02-20T00:09:16.502Z,7.20
2019-02-20T00:11:47.382Z,7.67
2019-02-20T00:14:18.121Z,7.20
2019-02-20T00:16:48.880Z,11.17
2019-02-20T00:19:20.291Z,8.57
2019-02-20T00:21:51.151Z,8.17
2019-02-20T00:24:22.028Z,8.00
2019-02-20T00:26:52.462Z,8.57
2019-02-20T00:29:23.145Z,8.37
2019-02-20T00:31:53.969Z,7.80
2019-02-20T00:34:24.705Z,7.60
2019-02-20T00:36:55.563Z,7.33
2019-02-20T00:39:26.283Z,7.40
2019-02-20T00:41:57.045Z,8.00
2019-02-20T00:44:41.802Z,8.40
2019-02-20T00:47:29.415Z,6.97
2019-02-20T00:50:00.414Z,7.43
2019-02-20T00:52:49.799Z,7.70
2019-02-20T00:55:17.623Z,7.77
2019-02-20T00:57:48.455Z,7.80
2019-02-20T01:00:19.279Z,7.43
2019-02-20T01:02:50.115Z,8.00
2019-02-20T01:05:20.966Z,7.67
2019-02-20T01:07:51.786Z,7.53
2019-02-20T01:10:22.725Z,7.43
2019-02-20T01:12:53.558Z,8.17
2019-02-20T01:15:24.309Z,7.13
2019-02-20T01:17:54.734Z,7.97
2019-02-20T01:20:25.134Z,7.80
2019-02-20T01:22:59.920Z,7.70
2019-02-20T01:25:28.473Z,8.10
2019-02-20T01:27:59.279Z,7.87
2019-02-20T01:30:30.063Z,8.10
2019-02-20T01:33:00.459Z,6.97
2019-02-20T01:35:31.190Z,7.93
2019-02-20T01:38:02.016Z,7.47
2019-02-20T01:40:32.404Z,7.20
2019-02-20T01:43:03.198Z,8.27
2019-02-20T01:45:33.915Z,7.00
2019-02-20T01:48:04.806Z,7.07
2019-02-20T01:50:35.595Z,7.70
2019-02-20T01:53:10.441Z,7.40
2019-02-20T01:55:38.810Z,7.50
2019-02-20T01:58:09.548Z,7.00
2019-02-20T02:00:40.293Z,6.90
2019-02-20T02:03:11.113Z,7.00
2019-02-20T02:05:41.948Z,6.83
2019-02-20T02:08:12.782Z,6.60
2019-02-20T02:10:43.514Z,7.30
2019-02-20T02:13:13.947Z,6.10
2019-02-20T02:15:44.679Z,6.40
2019-02-20T02:18:15.518Z,5.90
2019-02-20T02:20:47.371Z,6.57
2019-02-20T02:23:20.069Z,5.67
2019-02-20T02:25:50.567Z,5.83
2019-02-20T02:28:21.323Z,6.10
2019-02-20T02:30:52.080Z,5.27
2019-02-20T02:33:22.608Z,5.47
2019-02-20T02:35:53.336Z,5.60
2019-02-20T02:38:23.848Z,5.93
2019-02-20T02:40:54.587Z,5.60
2019-02-20T02:43:25.537Z,5.07
2019-02-20T02:45:56.343Z,5.27
2019-02-20T02:48:27.100Z,5.40
2019-02-20T02:50:57.836Z,5.30
2019-02-20T02:53:30.942Z,5.20
2019-02-20T02:56:00.831Z,5.33
2019-02-20T02:58:31.671Z,4.43
2019-02-20T03:01:02.132Z,5.10
2019-02-20T03:03:33.040Z,5.10
2019-02-20T03:06:03.770Z,4.73
2019-02-20T03:08:34.299Z,4.67
2019-02-20T03:11:05.031Z,5.27
2019-02-20T03:13:35.871Z,4.80
2019-02-20T03:16:09.470Z,5.20
2019-02-20T03:18:39.934Z,4.70
2019-02-20T03:21:10.736Z,4.57
2019-02-20T03:23:41.574Z,4.70
2019-02-20T03:26:12.077Z,4.90
2019-02-20T03:28:42.490Z,5.07
2019-02-20T03:31:13.449Z,5.53
2019-02-20T03:33:44.518Z,5.27
2019-02-20T03:36:15.350Z,5.30
2019-02-20T03:38:46.080Z,5.23
2019-02-20T03:41:16.921Z,5.17
2019-02-20T03:43:47.762Z,5.27
2019-02-20T03:46:18.493Z,5.43
2019-02-20T03:48:49.214Z,5.50
2019-02-20T03:51:19.967Z,5.13
2019-02-20T03:53:51.965Z,5.27
2019-02-20T03:56:23.089Z,5.10
2019-02-20T03:58:53.790Z,5.63
2019-02-20T04:01:24.683Z,6.10
2019-02-20T04:03:55.477Z,6.10
2019-02-20T04:06:26.294Z,5.47
2019-02-20T04:08:57.058Z,6.53
2019-02-20T04:11:27.786Z,6.10
2019-02-20T04:13:58.619Z,6.67
2019-02-20T04:16:29.446Z,6.57
2019-02-20T04:19:00.292Z,6.50
2019-02-20T04:21:30.674Z,6.80
2019-02-20T04:24:02.825Z,7.23
2019-02-20T04:26:35.462Z,6.77
2019-02-20T04:29:06.402Z,7.27
2019-02-20T04:31:37.158Z,7.10
2019-02-20T04:34:07.970Z,7.20
2019-02-20T04:36:38.725Z,8.73
2019-02-20T04:39:09.545Z,7.83
2019-02-20T04:41:40.413Z,7.63
2019-02-20T04:44:11.328Z,8.37
2019-02-20T04:46:42.051Z,8.33
2019-02-20T04:49:12.896Z,7.90
2019-02-20T04:51:45.055Z,7.87
2019-02-20T04:54:15.814Z,8.67
2019-02-20T04:56:46.252Z,8.30
2019-02-20T04:59:17.263Z,8.03
2019-02-20T05:01:48.115Z,8.50
2019-02-20T05:04:18.926Z,8.57
2019-02-20T05:06:49.661Z,8.50
2019-02-20T05:09:20.648Z,9.03
2019-02-20T05:11:51.483Z,8.67
2019-02-20T05:14:21.962Z,8.57
2019-02-20T05:16:52.785Z,8.83
2019-02-20T05:19:23.646Z,9.30
2019-02-20T05:21:54.378Z,8.67
2019-02-20T05:24:25.365Z,9.33
2019-02-20T05:26:56.141Z,8.63
2019-02-20T05:29:27.021Z,8.70
2019-02-20T05:31:57.911Z,9.10
2019-02-20T05:34:28.666Z,8.73
2019-02-20T05:36:59.611Z,8.80
2019-02-20T05:39:30.430Z,9.57
2019-02-20T05:42:01.193Z,9.57
2019-02-20T05:44:32.228Z,9.20
2019-02-20T05:47:03.050Z,9.07
2019-02-20T05:49:33.567Z,9.23
2019-02-20T05:52:04.043Z,9.87
2019-02-20T05:54:35.288Z,9.00
2019-02-20T05:57:06.214Z,9.77
2019-02-20T05:59:36.949Z,9.90
2019-02-20T06:02:07.791Z,9.63
2019-02-20T06:04:38.611Z,9.90
2019-02-20T06:07:09.868Z,9.10
2019-02-20T06:09:40.684Z,8.53
2019-02-20T06:12:11.519Z,9.10
2019-02-20T06:14:42.246Z,9.83
2019-02-20T06:17:13.099Z,9.77
2019-02-20T06:19:44.041Z,9.37
2019-02-20T06:22:14.865Z,9.60
2019-02-20T06:24:45.599Z,9.27
2019-02-20T06:27:16.432Z,9.80
2019-02-20T06:29:46.830Z,9.97
2019-02-20T06:32:17.328Z,10.27
2019-02-20T06:34:48.235Z,9.27
2019-02-20T06:37:19.074Z,9.23
2019-02-20T06:39:49.909Z,9.20
2019-02-20T06:42:20.637Z,8.77
2019-02-20T06:44:52.625Z,8.77
2019-02-20T06:47:23.433Z,8.23
2019-02-20T06:49:54.276Z,8.47
2019-02-20T06:52:25.008Z,8.97
2019-02-20T06:54:55.745Z,8.33
2019-02-20T06:57:26.483Z,8.07
2019-02-20T06:59:57.316Z,8.67
2019-02-20T07:02:28.216Z,8.67
2019-02-20T07:05:33.622Z,8.10
2019-02-20T07:08:28.396Z,8.03
2019-02-20T07:11:11.426Z,8.27
2019-02-20T07:14:04.782Z,8.83
2019-02-20T07:17:01.219Z,8.07
2019-02-20T07:19:46.410Z,8.73
2019-02-20T07:22:28.572Z,8.10
2019-02-20T07:25:17.778Z,8.07
2019-02-20T07:28:06.522Z,8.30
2019-02-20T07:30:39.002Z,7.97
2019-02-20T07:33:09.835Z,7.77
2019-02-20T07:35:40.706Z,8.37
2019-02-20T07:38:14.997Z,8.10
2019-02-20T07:40:45.821Z,7.90
2019-02-20T07:43:16.658Z,8.43
2019-02-20T07:45:49.207Z,8.40
2019-02-20T07:48:19.909Z,7.97
2019-02-20T07:50:50.820Z,8.13
2019-02-20T07:53:23.220Z,9.60
2019-02-20T07:55:53.916Z,8.77
2019-02-20T07:58:24.753Z,7.50
2019-02-20T08:00:55.617Z,8.43
2019-02-20T08:03:26.540Z,8.13
2019-02-20T08:05:57.015Z,8.57
2019-02-20T08:08:27.932Z,7.80
2019-02-20T08:10:58.448Z,7.53
2019-02-20T08:13:38.884Z,8.53
2019-02-20T08:16:01.838Z,7.60
2019-02-20T08:18:32.677Z,7.57
2019-02-20T08:21:03.511Z,8.57
2019-02-20T08:23:34.240Z,8.23
2019-02-20T08:26:05.227Z,8.47
2019-02-20T08:28:35.927Z,7.83
2019-02-20T08:31:06.474Z,8.57
2019-02-20T08:33:37.200Z,8.20
2019-02-20T08:36:07.654Z,8.80
2019-02-20T08:38:38.471Z,8.13
2019-02-20T08:41:09.226Z,9.50
2019-02-20T08:43:40.051Z,8.23
2019-02-20T08:46:10.616Z,8.03
2019-02-20T08:48:41.499Z,8.07
2019-02-20T08:51:12.340Z,8.90
2019-02-20T08:53:43.277Z,8.90
2019-02-20T08:56:14.165Z,8.70
2019-02-20T08:58:44.925Z,9.00
2019-02-20T09:01:15.803Z,8.70
2019-02-20T09:03:46.619Z,9.20
2019-02-20T09:06:17.457Z,9.23
2019-02-20T09:08:48.950Z,8.50
2019-02-20T09:11:19.391Z,8.60
2019-02-20T09:13:50.178Z,8.63
2019-02-20T09:16:23.215Z,8.40
2019-02-20T09:18:53.741Z,9.27
2019-02-20T09:21:24.251Z,8.83
2019-02-20T09:23:55.050Z,8.97
2019-02-20T09:26:25.507Z,8.80
2019-02-20T09:28:57.240Z,9.03
2019-02-20T09:31:28.059Z,9.00
2019-02-20T09:33:59.033Z,9.57
2019-02-20T09:36:29.740Z,8.97
2019-02-20T09:39:03.892Z,8.70
2019-02-20T09:41:34.622Z,8.77
2019-02-20T09:44:05.431Z,9.13
2019-02-20T09:46:36.170Z,9.30
2019-02-20T09:49:07.039Z,8.63
2019-02-20T09:51:37.890Z,9.13
2019-02-20T09:54:08.453Z,8.73
2019-02-20T09:56:39.320Z,10.03
2019-02-20T09:59:10.131Z,9.40
2019-02-20T10:01:40.797Z,8.83
2019-02-20T10:04:11.693Z,8.63
2019-02-20T10:06:42.554Z,9.57
2019-02-20T10:09:13.510Z,9.90
2019-02-20T10:11:44.196Z,9.50
2019-02-20T10:14:17.365Z,9.40
2019-02-20T10:16:48.170Z,9.33
2019-02-20T10:19:19.009Z,9.60
2019-02-20T10:21:49.696Z,10.10
2019-02-20T10:24:20.578Z,9.77
2019-02-20T10:27:00.327Z,9.70
2019-02-20T10:29:25.592Z,9.83
2019-02-20T10:31:56.332Z,10.10
2019-02-20T10:34:28.983Z,9.83
2019-02-20T10:36:59.847Z,9.90
2019-02-20T10:39:30.264Z,10.20
2019-02-20T10:42:00.747Z,10.20
2019-02-20T10:44:31.537Z,10.03
2019-02-20T10:47:02.410Z,10.23
2019-02-20T10:49:33.229Z,9.93
2019-02-20T10:52:04.043Z,9.53
2019-02-20T10:54:34.571Z,9.90
2019-02-20T10:57:05.415Z,9.63
2019-02-20T10:59:36.289Z,9.83
2019-02-20T11:02:07.847Z,9.87
2019-02-20T11:04:38.639Z,9.40
2019-02-20T11:07:11.225Z,9.10
2019-02-20T11:09:42.066Z,9.60
2019-02-20T11:12:12.872Z,9.40
2019-02-20T11:14:43.359Z,8.90
2019-02-20T11:17:14.172Z,9.60
2019-02-20T11:19:45.524Z,9.30
2019-02-20T11:22:16.459Z,9.33
2019-02-20T11:24:49.353Z,9.00
2019-02-20T11:27:20.165Z,10.50
2019-02-20T11:29:51.039Z,10.30
2019-02-20T11:32:21.882Z,9.90
2019-02-20T11:34:52.808Z,9.90
2019-02-20T11:37:23.765Z,9.40
2019-02-20T11:39:54.677Z,9.47
2019-02-20T11:42:25.427Z,10.23
2019-02-20T11:44:56.243Z,9.20
2019-02-20T11:47:26.963Z,9.53
2019-02-20T11:49:57.924Z,10.90
2019-02-20T11:52:28.729Z,9.53
2019-02-20T11:54:59.511Z,9.57
2019-02-20T11:57:30.311Z,9.40
2019-02-20T12:00:01.059Z,9.67
2019-02-20T12:02:37.344Z,9.73
2019-02-20T12:05:05.894Z,10.47
2019-02-20T12:07:36.753Z,10.20
2019-02-20T12:10:10.465Z,9.67
2019-02-20T12:12:41.305Z,9.47
2019-02-20T12:15:12.016Z,9.63
2019-02-20T12:17:42.448Z,10.83
2019-02-20T12:20:13.569Z,9.00
2019-02-20T12:22:44.335Z,8.60
2019-02-20T12:25:15.648Z,8.80
2019-02-20T12:27:47.575Z,9.00
2019-02-20T12:30:18.377Z,9.90
2019-02-20T12:32:49.251Z,9.57
2019-02-20T12:35:20.193Z,9.37
2019-02-20T12:37:50.734Z,9.90
2019-02-20T12:40:21.612Z,9.37
2019-02-20T12:42:52.454Z,9.17
2019-02-20T12:45:23.192Z,8.63
2019-02-20T12:47:53.998Z,9.27
2019-02-20T12:50:24.869Z,8.83
2019-02-20T12:52:55.805Z,8.73
2019-02-20T12:55:26.744Z,9.00
2019-02-20T12:57:57.658Z,9.37
2019-02-20T13:00:28.485Z,9.10
2019-02-20T13:02:59.257Z,9.17
2019-02-20T13:05:30.081Z,9.00
2019-02-20T13:08:00.926Z,9.40
2019-02-20T13:10:31.853Z,9.33
2019-02-20T13:13:02.708Z,9.43
2019-02-20T13:15:33.719Z,10.27
2019-02-20T13:18:04.215Z,9.73
2019-02-20T13:20:35.106Z,10.07
2019-02-20T13:23:05.977Z,9.90
2019-02-20T13:25:38.497Z,10.20
2019-02-20T13:28:09.113Z,10.27
2019-02-20T13:30:40.353Z,9.90
2019-02-20T13:33:11.262Z,10.43
2019-02-20T13:35:42.211Z,9.80
2019-02-20T13:38:12.739Z,10.23
2019-02-20T13:40:43.636Z,10.00
2019-02-20T13:43:14.535Z,10.60
2019-02-20T13:45:45.563Z,10.60
2019-02-20T13:48:16.447Z,10.20
2019-02-20T13:50:47.285Z,10.50
2019-02-20T13:53:18.118Z,10.57
2019-02-20T13:55:48.971Z,9.80
2019-02-20T13:58:19.891Z,10.47
2019-02-20T14:00:50.972Z,10.37
2019-02-20T14:03:21.877Z,9.83
2019-02-20T14:05:52.713Z,9.60
2019-02-20T14:08:23.188Z,9.23
2019-02-20T14:10:54.194Z,10.50
2019-02-20T14:13:25.020Z,9.87
2019-02-20T14:15:55.983Z,10.00
2019-02-20T14:18:26.782Z,9.67
2019-02-20T14:20:57.366Z,10.50
2019-02-20T14:23:29.719Z,10.90
2019-02-20T14:26:00.779Z,10.47
2019-02-20T14:28:31.786Z,10.17
2019-02-20T14:31:02.620Z,10.63
2019-02-20T14:33:33.447Z,10.27
2019-02-20T14:36:04.276Z,10.73
2019-02-20T14:38:35.118Z,10.83
2019-02-20T14:41:06.478Z,10.27
2019-02-20T14:43:37.446Z,10.33
2019-02-20T14:46:08.399Z,10.50
2019-02-20T14:48:39.395Z,10.30
2019-02-20T14:51:10.231Z,11.13
2019-02-20T14:53:41.063Z,10.93
2019-02-20T14:56:12.034Z,9.70
2019-02-20T14:58:43.680Z,9.73
2019-02-20T15:01:14.593Z,9.70
2019-02-20T15:03:45.187Z,9.17
2019-02-20T15:06:16.071Z,8.40
2019-02-20T15:08:47.103Z,8.00
2019-02-20T15:11:17.675Z,7.60
2019-02-20T15:13:48.576Z,6.43
2019-02-20T15:16:19.442Z,6.37
2019-02-20T15:18:51.904Z,6.50
2019-02-20T15:21:22.838Z,6.67
2019-02-20T15:23:53.659Z,6.00
2019-02-20T15:26:24.178Z,6.73
2019-02-20T15:28:54.947Z,7.37
2019-02-20T15:31:33.452Z,7.47
2019-02-20T15:33:58.487Z,7.47
2019-02-20T15:36:29.295Z,7.90
2019-02-20T15:39:01.683Z,7.83
2019-02-20T15:41:32.556Z,8.20
2019-02-20T15:44:03.463Z,7.70
2019-02-20T15:46:34.252Z,7.43
2019-02-20T15:49:05.641Z,7.63
2019-02-20T15:51:39.524Z,7.20
2019-02-20T15:54:14.460Z,7.40
2019-02-20T15:56:45.286Z,8.17
2019-02-20T15:59:16.238Z,7.57
2019-02-20T16:01:47.502Z,8.50
2019-02-20T16:04:25.822Z,9.37
2019-02-20T16:06:59.496Z,7.50
2019-02-20T16:09:30.462Z,7.50
2019-02-20T16:12:01.402Z,7.20
2019-02-20T16:14:32.751Z,7.77
2019-02-20T16:17:04.096Z,8.00
2019-02-20T16:19:34.667Z,9.00
2019-02-20T16:22:05.440Z,9.40
2019-02-20T16:24:36.367Z,11.00
2019-02-20T16:27:08.398Z,10.70
2019-02-20T16:29:39.279Z,9.97
2019-02-20T16:32:14.442Z,10.97
2019-02-20T16:34:45.990Z,10.47
2019-02-20T16:37:16.805Z,11.40
2019-02-20T16:39:49.200Z,11.60
2019-02-20T16:42:21.545Z,11.17
2019-02-20T16:44:53.606Z,10.77
2019-02-20T16:47:25.994Z,10.67
2019-02-20T16:49:56.862Z,12.40
2019-02-20T16:52:29.276Z,12.20
2019-02-20T16:55:01.614Z,11.50
2019-02-20T16:57:32.669Z,11.03
2019-02-20T17:00:03.568Z,10.67
2019-02-20T17:02:34.486Z,10.60
2019-02-20T17:05:13.394Z,10.03
2019-02-20T17:07:40.254Z,11.47
2019-02-20T17:10:13.383Z,10.47
2019-02-20T17:12:43.942Z,10.33
2019-02-20T17:15:16.568Z,11.20
2019-02-20T17:17:47.842Z,10.93
2019-02-20T17:20:20.127Z,10.80
2019-02-20T17:22:51.283Z,9.57
2019-02-20T17:25:22.292Z,10.90
2019-02-20T17:27:53.198Z,9.90
2019-02-20T17:30:24.155Z,10.73
2019-02-20T17:32:55.064Z,10.70
2019-02-20T17:35:26.295Z,9.77
2019-02-20T17:37:57.356Z,10.07
2019-02-20T17:40:28.337Z,10.67
2019-02-20T17:43:01.757Z,9.83
2019-02-20T17:45:32.553Z,10.00
2019-02-20T17:48:03.366Z,10.03
2019-02-20T17:50:34.202Z,10.23
2019-02-20T17:53:05.029Z,10.33
2019-02-20T17:55:35.551Z,10.37
2019-02-20T17:58:14.859Z,10.60
2019-02-20T18:00:39.818Z,11.30
2019-02-20T18:03:10.656Z,10.77
2019-02-20T18:05:41.611Z,10.33
2019-02-20T18:08:12.575Z,9.30
2019-02-20T18:10:45.145Z,9.37
2019-02-20T18:13:16.056Z,10.87
2019-02-20T18:15:46.601Z,10.73
2019-02-20T18:18:17.438Z,10.60
2019-02-20T18:20:48.349Z,10.37
2019-02-20T18:23:19.090Z,10.00
2019-02-20T18:25:49.935Z,10.30
2019-02-20T18:28:24.447Z,9.93
2019-02-20T18:30:53.436Z,10.97
2019-02-20T18:33:24.020Z,10.83
2019-02-20T18:35:54.974Z,9.93
2019-02-20T18:38:25.762Z,10.13
2019-02-20T18:40:56.701Z,9.97
2019-02-20T18:43:27.516Z,10.23
2019-02-20T18:45:59.899Z,9.60
2019-02-20T18:48:30.777Z,9.33
2019-02-20T18:51:01.622Z,10.07
2019-02-20T18:53:32.513Z,9.73
2019-02-20T18:56:03.453Z,9.50
2019-02-20T18:58:34.454Z,9.57
2019-02-20T19:01:05.223Z,9.43
2019-02-20T19:03:35.741Z,9.53
2019-02-20T19:06:06.765Z,12.80
2019-02-20T19:08:43.420Z,9.80
2019-02-20T19:11:37.907Z,9.80
2019-02-20T19:14:42.635Z,10.27
2019-02-20T19:17:32.912Z,10.07
2019-02-20T19:20:06.827Z,9.70
2019-02-20T19:23:14.187Z,9.50
2019-02-20T19:25:56.957Z,8.87
2019-02-20T19:28:44.317Z,10.50
2019-02-20T19:31:36.363Z,9.90
2019-02-20T19:34:10.466Z,9.83
2019-02-20T19:37:02.060Z,10.00
2019-02-20T19:40:01.672Z,9.80
2019-02-20T19:42:59.581Z,9.87
2019-02-20T19:45:37.808Z,10.23
2019-02-20T19:48:32.690Z,9.47
2019-02-20T19:51:23.275Z,10.60
2019-02-20T19:54:21.531Z,9.97
2019-02-20T19:57:01.220Z,9.67
2019-02-20T19:59:47.317Z,9.67
2019-02-20T20:02:33.250Z,9.93
2019-02-20T20:05:22.747Z,9.83
2019-02-20T20:08:07.922Z,10.13
2019-02-20T20:10:57.404Z,10.10
2019-02-20T20:13:40.399Z,9.77
2019-02-20T20:16:29.326Z,9.77
2019-02-20T20:19:24.127Z,9.50
2019-02-20T20:22:06.885Z,8.93
2019-02-20T20:24:50.217Z,8.57
2019-02-20T20:27:24.311Z,9.40
2019-02-20T20:30:27.883Z,9.30
2019-02-20T20:33:11.333Z,9.90
2019-02-20T20:35:53.691Z,8.80
2019-02-20T20:38:39.545Z,9.20
2019-02-20T20:41:19.443Z,8.33
2019-02-20T20:43:59.431Z,8.80
2019-02-20T20:46:53.321Z,9.63
2019-02-20T20:49:19.050Z,9.13
2019-02-20T20:52:21.690Z,9.17
2019-02-20T20:55:05.769Z,8.60
2019-02-20T20:58:02.451Z,10.00
2019-02-20T21:00:53.054Z,10.63
2019-02-20T21:03:27.221Z,8.70
2019-02-20T21:06:26.704Z,9.07
2019-02-20T21:09:00.602Z,9.03
2019-02-20T21:11:55.168Z,8.77
2019-02-20T21:14:33.224Z,9.30
2019-02-20T21:17:36.065Z,8.40
2019-02-20T21:20:25.706Z,7.83
2019-02-20T21:23:30.981Z,8.43
2019-02-20T21:26:10.433Z,8.23
2019-02-20T21:29:05.445Z,7.50
2019-02-20T21:31:45.430Z,7.13
2019-02-20T21:34:38.694Z,8.00
2019-02-20T21:37:30.836Z,7.50
2019-02-20T21:40:21.091Z,7.47
2019-02-20T21:43:12.113Z,6.97
2019-02-20T21:45:55.026Z,7.17
2019-02-20T21:48:43.430Z,8.23
2019-02-20T21:51:20.391Z,7.37
2019-02-20T21:53:54.353Z,7.47
2019-02-20T21:56:37.103Z,7.67
2019-02-20T21:59:22.990Z,7.27
2019-02-20T22:02:05.969Z,6.57
2019-02-20T22:05:04.116Z,7.23
2019-02-20T22:07:49.635Z,6.87
2019-02-20T22:10:43.139Z,7.13
2019-02-20T22:13:31.735Z,6.97
2019-02-20T22:16:25.977Z,6.77
2019-02-20T22:19:06.471Z,6.90
2019-02-20T22:22:07.448Z,7.33
2019-02-20T22:24:57.833Z,7.63
2019-02-20T22:27:45.888Z,7.07
2019-02-20T22:30:28.493Z,7.13
2019-02-20T22:33:11.385Z,6.43
2019-02-20T22:36:02.634Z,9.73
2019-02-20T22:39:04.164Z,12.07
2019-02-20T22:41:48.024Z,7.77
2019-02-20T22:44:40.057Z,7.53
2019-02-20T22:47:33.952Z,7.33
2019-02-20T22:50:17.871Z,6.87
2019-02-20T22:53:00.051Z,7.07
2019-02-20T22:55:50.427Z,7.00
2019-02-20T22:58:33.007Z,7.10
2019-02-20T23:01:25.893Z,6.77
2019-02-20T23:04:04.456Z,6.60
2019-02-20T23:06:48.399Z,6.90
2019-02-20T23:09:36.235Z,7.20
2019-02-20T23:12:22.495Z,6.87
2019-02-20T23:14:58.791Z,7.10
2019-02-20T23:17:29.625Z,7.97
2019-02-20T23:20:00.448Z,6.80
2019-02-20T23:22:31.326Z,8.10
2019-02-20T23:25:02.135Z,7.33
2019-02-20T23:27:32.857Z,8.20
2019-02-20T23:30:12.563Z,7.93
2019-02-20T23:32:36.600Z,8.57
2019-02-20T23:35:09.061Z,8.67
2019-02-20T23:37:39.931Z,8.53
2019-02-20T23:40:11.153Z,8.33
2019-02-20T23:42:42.009Z,9.03
2019-02-20T23:45:12.838Z,8.97
2019-02-20T23:47:44.982Z,9.33
2019-02-20T23:50:15.831Z,9.90
2019-02-20T23:52:46.552Z,9.57
2019-02-20T23:55:16.941Z,10.20
2019-02-20T23:57:47.847Z,10.27
